sensor_id;sensor_type;location;lat;lon;timestamp;pressure;altitude;pressure_sealevel;temperature;humidity
40596;BME280;26304;48.794;9.820;2023-01-24T00:00:35;97602.97;;;16.07;48.79
40596;BME280;26304;48.794;9.820;2023-01-24T00:06:19;97602.53;;;16.05;48.50
40596;BME280;26304;48.794;9.820;2023-01-24T00:12:01;97596.69;;;16.00;49.14
40596;BME280;26304;48.794;9.820;2023-01-24T00:17:44;97600.84;;;16.01;48.66
40596;BME280;26304;48.794;9.820;2023-01-24T00:23:27;97596.91;;;15.94;49.07
40596;BME280;26304;48.794;9.820;2023-01-24T00:29:10;97585.50;;;15.90;48.70
40596;BME280;26304;48.794;9.820;2023-01-24T00:34:52;97597.53;;;15.91;49.38
40596;BME280;26304;48.794;9.820;2023-01-24T00:40:36;97593.06;;;15.92;49.12
40596;BME280;26304;48.794;9.820;2023-01-24T00:46:18;97585.06;;;15.88;48.97
40596;BME280;26304;48.794;9.820;2023-01-24T00:52:01;97587.56;;;15.85;49.49
40596;BME280;26304;48.794;9.820;2023-01-24T00:57:44;97595.75;;;15.83;49.07
40596;BME280;26304;48.794;9.820;2023-01-24T01:03:27;97594.84;;;15.79;49.36
40596;BME280;26304;48.794;9.820;2023-01-24T01:09:09;97594.84;;;15.79;49.01
40596;BME280;26304;48.794;9.820;2023-01-24T01:14:53;97603.03;;;15.77;49.21
40596;BME280;26304;48.794;9.820;2023-01-24T01:20:35;97613.38;;;15.74;49.82
40596;BME280;26304;48.794;9.820;2023-01-24T01:26:20;97615.56;;;15.72;49.23
40596;BME280;26304;48.794;9.820;2023-01-24T01:32:04;97611.41;;;15.71;49.41
40596;BME280;26304;48.794;9.820;2023-01-24T01:37:46;97610.97;;;15.69;49.33
40596;BME280;26304;48.794;9.820;2023-01-24T01:43:29;97626.22;;;15.67;49.39
40596;BME280;26304;48.794;9.820;2023-01-24T01:49:17;97619.78;;;15.64;49.84
40596;BME280;26304;48.794;9.820;2023-01-24T01:55:05;97624.25;;;15.64;49.98
40596;BME280;26304;48.794;9.820;2023-01-24T02:00:49;97626.09;;;15.63;49.80
40596;BME280;26304;48.794;9.820;2023-01-24T02:06:48;97618.56;;;15.61;49.33
40596;BME280;26304;48.794;9.820;2023-01-24T02:12:36;97625.53;;;15.57;50.04
40596;BME280;26304;48.794;9.820;2023-01-24T02:18:19;97627.69;;;15.55;49.66
40596;BME280;26304;48.794;9.820;2023-01-24T02:24:08;97630.53;;;16.13;48.47
40596;BME280;26304;48.794;9.820;2023-01-24T02:29:55;97629.25;;;16.78;47.58
40596;BME280;26304;48.794;9.820;2023-01-24T02:35:38;97636.63;;;17.34;46.54
40596;BME280;26304;48.794;9.820;2023-01-24T02:41:22;97639.38;;;17.78;45.97
40596;BME280;26304;48.794;9.820;2023-01-24T02:47:08;97640.28;;;18.10;45.06
40596;BME280;26304;48.794;9.820;2023-01-24T02:52:54;97640.75;;;18.28;45.31
40596;BME280;26304;48.794;9.820;2023-01-24T02:58:54;97650.41;;;18.52;45.18
40596;BME280;26304;48.794;9.820;2023-01-24T03:04:38;97648.72;;;18.76;44.68
40596;BME280;26304;48.794;9.820;2023-01-24T03:10:20;97652.31;;;19.00;44.50
40596;BME280;26304;48.794;9.820;2023-01-24T03:16:03;97643.63;;;19.15;44.05
40596;BME280;26304;48.794;9.820;2023-01-24T03:22:05;97651.34;;;19.24;44.37
40596;BME280;26304;48.794;9.820;2023-01-24T03:28:05;97650.09;;;19.34;44.35
40596;BME280;26304;48.794;9.820;2023-01-24T03:34:05;97648.56;;;19.88;43.29
40596;BME280;26304;48.794;9.820;2023-01-24T03:40:09;97648.44;;;20.00;43.22
40596;BME280;26304;48.794;9.820;2023-01-24T03:45:52;97647.25;;;20.17;43.14
40596;BME280;26304;48.794;9.820;2023-01-24T03:51:35;97643.84;;;20.36;42.95
40596;BME280;26304;48.794;9.820;2023-01-24T03:57:36;97646.81;;;20.35;42.65
40596;BME280;26304;48.794;9.820;2023-01-24T04:03:19;97648.34;;;20.16;43.09
40596;BME280;26304;48.794;9.820;2023-01-24T04:09:02;97649.69;;;19.87;43.71
40596;BME280;26304;48.794;9.820;2023-01-24T04:14:45;97644.41;;;19.51;44.28
40596;BME280;26304;48.794;9.820;2023-01-24T04:20:29;97645.25;;;19.20;44.70
40596;BME280;26304;48.794;9.820;2023-01-24T04:26:12;97645.34;;;18.92;45.77
40596;BME280;26304;48.794;9.820;2023-01-24T04:31:56;97642.53;;;18.68;46.03
40596;BME280;26304;48.794;9.820;2023-01-24T04:37:38;97654.69;;;18.73;45.75
40596;BME280;26304;48.794;9.820;2023-01-24T04:43:20;97657.91;;;19.30;44.70
40596;BME280;26304;48.794;9.820;2023-01-24T04:49:04;97654.88;;;19.83;43.78
40596;BME280;26304;48.794;9.820;2023-01-24T04:54:46;97668.91;;;20.07;43.54
40596;BME280;26304;48.794;9.820;2023-01-24T05:00:29;97670.53;;;20.11;43.26
40596;BME280;26304;48.794;9.820;2023-01-24T05:06:12;97671.56;;;19.87;43.54
40596;BME280;26304;48.794;9.820;2023-01-24T05:11:55;97672.16;;;19.61;44.12
40596;BME280;26304;48.794;9.820;2023-01-24T05:17:37;97687.34;;;19.32;45.13
40596;BME280;26304;48.794;9.820;2023-01-24T05:23:21;97691.56;;;18.73;46.31
40596;BME280;26304;48.794;9.820;2023-01-24T05:29:03;97687.50;;;18.47;47.36
40596;BME280;26304;48.794;9.820;2023-01-24T05:34:46;97698.53;;;18.37;47.33
40596;BME280;26304;48.794;9.820;2023-01-24T05:40:29;97705.38;;;18.26;47.34
40596;BME280;26304;48.794;9.820;2023-01-24T05:46:14;97708.38;;;18.12;48.05
40596;BME280;26304;48.794;9.820;2023-01-24T05:51:56;97706.88;;;17.99;48.32
40596;BME280;26304;48.794;9.820;2023-01-24T05:57:40;97706.13;;;17.86;48.55
40596;BME280;26304;48.794;9.820;2023-01-24T06:03:23;97702.84;;;17.89;48.71
40596;BME280;26304;48.794;9.820;2023-01-24T06:09:05;97708.22;;;17.92;48.76
40596;BME280;26304;48.794;9.820;2023-01-24T06:14:50;97702.19;;;17.92;48.41
40596;BME280;26304;48.794;9.820;2023-01-24T06:20:33;97712.72;;;17.92;49.18
40596;BME280;26304;48.794;9.820;2023-01-24T06:26:16;97716.28;;;18.40;48.59
40596;BME280;26304;48.794;9.820;2023-01-24T06:32:05;97720.56;;;19.53;47.03
40596;BME280;26304;48.794;9.820;2023-01-24T06:37:51;97721.59;;;20.39;45.49
40596;BME280;26304;48.794;9.820;2023-01-24T06:43:34;97725.38;;;20.61;44.93
40596;BME280;26304;48.794;9.820;2023-01-24T06:49:18;97728.59;;;20.93;44.47
40596;BME280;26304;48.794;9.820;2023-01-24T06:55:00;97732.59;;;21.30;43.78
40596;BME280;26304;48.794;9.820;2023-01-24T07:00:42;97734.94;;;21.58;43.56
40596;BME280;26304;48.794;9.820;2023-01-24T07:06:26;97746.72;;;21.61;43.49
40596;BME280;26304;48.794;9.820;2023-01-24T07:12:09;97751.06;;;20.80;45.58
40596;BME280;26304;48.794;9.820;2023-01-24T07:17:51;97757.97;;;20.88;46.06
40596;BME280;26304;48.794;9.820;2023-01-24T07:23:37;97765.03;;;21.27;45.37
40596;BME280;26304;48.794;9.820;2023-01-24T07:29:19;97773.44;;;21.55;45.00
40596;BME280;26304;48.794;9.820;2023-01-24T07:35:03;97781.56;;;21.66;45.60
40596;BME280;26304;48.794;9.820;2023-01-24T07:40:47;97785.53;;;21.80;45.18
40596;BME280;26304;48.794;9.820;2023-01-24T07:46:29;97793.69;;;21.94;45.46
40596;BME280;26304;48.794;9.820;2023-01-24T07:52:11;97801.41;;;22.06;45.16
40596;BME280;26304;48.794;9.820;2023-01-24T07:57:59;97798.53;;;22.19;45.06
40596;BME280;26304;48.794;9.820;2023-01-24T08:03:41;97795.44;;;22.13;45.17
40596;BME280;26304;48.794;9.820;2023-01-24T08:09:23;97806.69;;;22.06;45.53
40596;BME280;26304;48.794;9.820;2023-01-24T08:15:09;97812.00;;;21.80;45.67
40596;BME280;26304;48.794;9.820;2023-01-24T08:20:54;97821.50;;;21.57;45.84
40596;BME280;26304;48.794;9.820;2023-01-24T08:26:36;97829.31;;;21.27;46.41
40596;BME280;26304;48.794;9.820;2023-01-24T08:32:20;97823.34;;;21.11;47.06
40596;BME280;26304;48.794;9.820;2023-01-24T08:38:02;97829.00;;;20.90;47.84
40596;BME280;26304;48.794;9.820;2023-01-24T08:43:45;97826.31;;;20.66;47.81
40596;BME280;26304;48.794;9.820;2023-01-24T08:49:29;97832.31;;;20.47;47.99
40596;BME280;26304;48.794;9.820;2023-01-24T08:55:12;97833.47;;;20.30;47.98
40596;BME280;26304;48.794;9.820;2023-01-24T09:00:55;97842.88;;;20.28;48.11
40596;BME280;26304;48.794;9.820;2023-01-24T09:06:39;97852.84;;;20.19;48.54
40596;BME280;26304;48.794;9.820;2023-01-24T09:12:21;97857.16;;;19.91;49.30
40596;BME280;26304;48.794;9.820;2023-01-24T09:18:03;97856.81;;;19.77;49.12
40596;BME280;26304;48.794;9.820;2023-01-24T09:23:47;97858.75;;;19.64;48.93
40596;BME280;26304;48.794;9.820;2023-01-24T09:29:30;97865.97;;;19.51;49.07
40596;BME280;26304;48.794;9.820;2023-01-24T09:35:12;97854.28;;;19.36;49.16
40596;BME280;26304;48.794;9.820;2023-01-24T09:41:03;97870.97;;;19.40;49.39
40596;BME280;26304;48.794;9.820;2023-01-24T09:46:49;97866.47;;;19.41;49.19
40596;BME280;26304;48.794;9.820;2023-01-24T09:52:37;97860.59;;;19.64;50.13
40596;BME280;26304;48.794;9.820;2023-01-24T09:58:27;97873.28;;;19.42;49.87
40596;BME280;26304;48.794;9.820;2023-01-24T10:04:17;97869.16;;;19.29;49.75
40596;BME280;26304;48.794;9.820;2023-01-24T10:10:10;97874.72;;;19.39;50.71
40596;BME280;26304;48.794;9.820;2023-01-24T10:16:06;97874.22;;;19.34;49.97
40596;BME280;26304;48.794;9.820;2023-01-24T10:22:04;97876.84;;;19.34;50.02
40596;BME280;26304;48.794;9.820;2023-01-24T10:27:56;97877.31;;;19.23;50.35
40596;BME280;26304;48.794;9.820;2023-01-24T10:33:47;97883.25;;;19.20;50.57
40596;BME280;26304;48.794;9.820;2023-01-24T10:39:29;97863.53;;;19.14;50.38
40596;BME280;26304;48.794;9.820;2023-01-24T10:45:27;97868.63;;;19.07;50.88
40596;BME280;26304;48.794;9.820;2023-01-24T10:51:15;97853.53;;;18.92;50.63
40596;BME280;26304;48.794;9.820;2023-01-24T10:56:58;97853.19;;;18.93;51.36
40596;BME280;26304;48.794;9.820;2023-01-24T11:02:46;97850.47;;;18.90;51.93
40596;BME280;26304;48.794;9.820;2023-01-24T11:08:35;97849.34;;;18.91;51.64
40596;BME280;26304;48.794;9.820;2023-01-24T11:14:20;97846.19;;;18.85;52.38
40596;BME280;26304;48.794;9.820;2023-01-24T11:20:20;97834.41;;;18.82;52.05
40596;BME280;26304;48.794;9.820;2023-01-24T11:26:18;97833.69;;;18.69;51.77
40596;BME280;26304;48.794;9.820;2023-01-24T11:32:20;97831.25;;;18.36;50.40
40596;BME280;26304;48.794;9.820;2023-01-24T11:38:21;97822.19;;;18.09;49.95
40596;BME280;26304;48.794;9.820;2023-01-24T11:44:20;97816.84;;;17.93;49.81
40596;BME280;26304;48.794;9.820;2023-01-24T11:50:15;97809.28;;;17.91;50.96
40596;BME280;26304;48.794;9.820;2023-01-24T11:56:13;97801.03;;;18.05;50.63
40596;BME280;26304;48.794;9.820;2023-01-24T12:02:20;97798.41;;;18.05;50.53
40596;BME280;26304;48.794;9.820;2023-01-24T12:08:19;97795.34;;;18.03;51.37
40596;BME280;26304;48.794;9.820;2023-01-24T12:14:22;97786.81;;;18.06;50.67
40596;BME280;26304;48.794;9.820;2023-01-24T12:20:26;97785.91;;;18.02;50.71
40596;BME280;26304;48.794;9.820;2023-01-24T12:26:16;97782.84;;;18.00;50.49
40596;BME280;26304;48.794;9.820;2023-01-24T12:32:03;97780.00;;;17.93;50.90
40596;BME280;26304;48.794;9.820;2023-01-24T12:37:56;97767.38;;;17.86;50.87
40596;BME280;26304;48.794;9.820;2023-01-24T12:43:56;97771.75;;;17.82;51.28
40596;BME280;26304;48.794;9.820;2023-01-24T12:49:47;97781.53;;;17.82;50.96
40596;BME280;26304;48.794;9.820;2023-01-24T12:55:39;97779.44;;;17.75;50.74
40596;BME280;26304;48.794;9.820;2023-01-24T13:01:41;97775.59;;;17.72;50.77
40596;BME280;26304;48.794;9.820;2023-01-24T13:07:41;97772.78;;;17.65;50.62
40596;BME280;26304;48.794;9.820;2023-01-24T13:13:33;97772.78;;;17.65;50.48
40596;BME280;26304;48.794;9.820;2023-01-24T13:19:27;97785.50;;;17.63;50.73
40596;BME280;26304;48.794;9.820;2023-01-24T13:25:24;97778.25;;;17.60;50.42
40596;BME280;26304;48.794;9.820;2023-01-24T13:31:17;97781.75;;;17.64;51.13
40596;BME280;26304;48.794;9.820;2023-01-24T13:37:04;97782.84;;;17.75;51.09
40596;BME280;26304;48.794;9.820;2023-01-24T13:42:48;97773.97;;;17.80;51.25
40596;BME280;26304;48.794;9.820;2023-01-24T13:48:54;97777.69;;;17.79;51.50
40596;BME280;26304;48.794;9.820;2023-01-24T13:54:38;97774.75;;;17.93;51.48
40596;BME280;26304;48.794;9.820;2023-01-24T14:00:22;97771.31;;;17.80;51.61
40596;BME280;26304;48.794;9.820;2023-01-24T14:06:11;97776.91;;;17.78;52.16
40596;BME280;26304;48.794;9.820;2023-01-24T14:11:56;97782.28;;;17.82;52.14
40596;BME280;26304;48.794;9.820;2023-01-24T14:17:47;97793.50;;;17.79;52.36
40596;BME280;26304;48.794;9.820;2023-01-24T14:23:32;97792.28;;;17.76;52.56
40596;BME280;26304;48.794;9.820;2023-01-24T14:29:16;97803.25;;;17.91;52.63
40596;BME280;26304;48.794;9.820;2023-01-24T14:35:12;97801.38;;;17.79;53.03
40596;BME280;26304;48.794;9.820;2023-01-24T14:40:59;97798.63;;;17.75;52.67
40596;BME280;26304;48.794;9.820;2023-01-24T14:46:41;97803.31;;;17.82;52.82
40596;BME280;26304;48.794;9.820;2023-01-24T14:52:25;97802.69;;;17.73;52.78
40596;BME280;26304;48.794;9.820;2023-01-24T14:58:20;97799.50;;;17.67;54.40
40596;BME280;26304;48.794;9.820;2023-01-24T15:04:03;97802.56;;;17.69;53.83
40596;BME280;26304;48.794;9.820;2023-01-24T15:09:46;97800.88;;;17.28;50.88
40596;BME280;26304;48.794;9.820;2023-01-24T15:15:29;97801.66;;;17.40;52.80
40596;BME280;26304;48.794;9.820;2023-01-24T15:21:23;97809.13;;;17.51;52.75
40596;BME280;26304;48.794;9.820;2023-01-24T15:27:21;97807.84;;;17.57;53.47
40596;BME280;26304;48.794;9.820;2023-01-24T15:33:12;97816.47;;;17.45;52.54
40596;BME280;26304;48.794;9.820;2023-01-24T15:38:56;97818.31;;;17.45;53.33
40596;BME280;26304;48.794;9.820;2023-01-24T15:44:44;97821.59;;;17.41;52.11
40596;BME280;26304;48.794;9.820;2023-01-24T15:50:28;97822.75;;;17.19;50.98
40596;BME280;26304;48.794;9.820;2023-01-24T15:56:29;97830.16;;;17.05;50.82
40596;BME280;26304;48.794;9.820;2023-01-24T16:02:12;97825.13;;;17.00;50.50
40596;BME280;26304;48.794;9.820;2023-01-24T16:07:56;97831.88;;;16.88;49.83
40596;BME280;26304;48.794;9.820;2023-01-24T16:13:40;97834.06;;;16.86;49.97
40596;BME280;26304;48.794;9.820;2023-01-24T16:19:24;97833.13;;;16.82;49.60
40596;BME280;26304;48.794;9.820;2023-01-24T16:25:10;97831.88;;;16.80;49.43
40596;BME280;26304;48.794;9.820;2023-01-24T16:30:58;97837.09;;;16.67;50.07
40596;BME280;26304;48.794;9.820;2023-01-24T16:36:41;97845.53;;;16.73;49.61
40596;BME280;26304;48.794;9.820;2023-01-24T16:42:25;97849.13;;;16.68;48.81
40596;BME280;26304;48.794;9.820;2023-01-24T16:48:07;97856.50;;;16.54;49.66
40596;BME280;26304;48.794;9.820;2023-01-24T16:53:53;97864.50;;;16.58;49.13
40596;BME280;26304;48.794;9.820;2023-01-24T16:59:37;97871.16;;;16.55;49.10
40596;BME280;26304;48.794;9.820;2023-01-24T17:05:19;97863.97;;;16.43;48.67
40596;BME280;26304;48.794;9.820;2023-01-24T17:11:05;97875.44;;;16.39;48.82
40596;BME280;26304;48.794;9.820;2023-01-24T17:16:49;97875.25;;;16.44;48.70
40596;BME280;26304;48.794;9.820;2023-01-24T17:22:32;97876.97;;;16.40;48.43
40596;BME280;26304;48.794;9.820;2023-01-24T17:28:14;97881.50;;;16.30;48.57
40596;BME280;26304;48.794;9.820;2023-01-24T17:34:00;97887.03;;;16.38;48.14
40596;BME280;26304;48.794;9.820;2023-01-24T17:39:42;97889.03;;;16.32;48.28
40596;BME280;26304;48.794;9.820;2023-01-24T17:45:24;97892.91;;;16.34;47.70
40596;BME280;26304;48.794;9.820;2023-01-24T17:51:10;97900.16;;;16.29;48.39
40596;BME280;26304;48.794;9.820;2023-01-24T17:56:53;97902.66;;;16.25;48.00
40596;BME280;26304;48.794;9.820;2023-01-24T18:02:36;97894.38;;;16.14;48.33
40596;BME280;26304;48.794;9.820;2023-01-24T18:08:20;97884.81;;;16.19;48.94
40596;BME280;26304;48.794;9.820;2023-01-24T18:14:03;97881.00;;;16.37;49.29
40596;BME280;26304;48.794;9.820;2023-01-24T18:19:46;97882.41;;;16.34;49.57
40596;BME280;26304;48.794;9.820;2023-01-24T18:25:31;97874.13;;;16.24;49.41
40596;BME280;26304;48.794;9.820;2023-01-24T18:31:14;97867.66;;;16.21;49.00
40596;BME280;26304;48.794;9.820;2023-01-24T18:36:57;97879.25;;;16.20;50.19
40596;BME280;26304;48.794;9.820;2023-01-24T18:42:41;97877.56;;;16.45;50.91
40596;BME280;26304;48.794;9.820;2023-01-24T18:48:25;97886.47;;;16.53;51.14
40596;BME280;26304;48.794;9.820;2023-01-24T18:54:07;97884.50;;;16.71;51.31
40596;BME280;26304;48.794;9.820;2023-01-24T18:59:51;97870.31;;;16.84;52.13
40596;BME280;26304;48.794;9.820;2023-01-24T19:05:33;97880.16;;;16.96;52.45
40596;BME280;26304;48.794;9.820;2023-01-24T19:11:16;97871.31;;;17.01;52.26
40596;BME280;26304;48.794;9.820;2023-01-24T19:16:59;97875.84;;;17.13;52.45
40596;BME280;26304;48.794;9.820;2023-01-24T19:22:42;97874.91;;;16.96;52.82
40596;BME280;26304;48.794;9.820;2023-01-24T19:28:24;97872.72;;;16.98;52.64
40596;BME280;26304;48.794;9.820;2023-01-24T19:34:09;97870.63;;;16.92;52.22
40596;BME280;26304;48.794;9.820;2023-01-24T19:39:51;97872.66;;;16.86;52.70
40596;BME280;26304;48.794;9.820;2023-01-24T19:45:37;97863.19;;;16.94;52.64
40596;BME280;26304;48.794;9.820;2023-01-24T19:51:22;97870.94;;;16.90;53.37
40596;BME280;26304;48.794;9.820;2023-01-24T19:57:04;97867.41;;;16.86;53.91
40596;BME280;26304;48.794;9.820;2023-01-24T20:02:47;97868.66;;;16.80;53.91
40596;BME280;26304;48.794;9.820;2023-01-24T20:08:30;97876.53;;;16.80;54.78
40596;BME280;26304;48.794;9.820;2023-01-24T20:14:13;97870.03;;;16.86;54.48
40596;BME280;26304;48.794;9.820;2023-01-24T20:19:55;97880.97;;;16.88;54.47
40596;BME280;26304;48.794;9.820;2023-01-24T20:25:39;97880.34;;;16.91;54.94
40596;BME280;26304;48.794;9.820;2023-01-24T20:31:21;97880.66;;;16.89;53.88
40596;BME280;26304;48.794;9.820;2023-01-24T20:37:05;97878.22;;;16.63;52.58
40596;BME280;26304;48.794;9.820;2023-01-24T20:42:49;97884.03;;;16.18;48.90
40596;BME280;26304;48.794;9.820;2023-01-24T20:48:31;97887.25;;;15.85;46.57
40596;BME280;26304;48.794;9.820;2023-01-24T20:54:18;97887.47;;;15.62;45.54
40596;BME280;26304;48.794;9.820;2023-01-24T21:00:04;97890.25;;;15.49;45.62
40596;BME280;26304;48.794;9.820;2023-01-24T21:05:47;97888.28;;;15.37;46.57
40596;BME280;26304;48.794;9.820;2023-01-24T21:11:31;97882.44;;;15.40;46.22
40596;BME280;26304;48.794;9.820;2023-01-24T21:17:15;97885.53;;;15.24;45.94
40596;BME280;26304;48.794;9.820;2023-01-24T21:23:00;97881.81;;;15.43;46.14
40596;BME280;26304;48.794;9.820;2023-01-24T21:28:43;97893.03;;;15.43;46.81
40596;BME280;26304;48.794;9.820;2023-01-24T21:34:27;97894.59;;;15.44;47.12
40596;BME280;26304;48.794;9.820;2023-01-24T21:40:10;97893.19;;;15.47;47.94
40596;BME280;26304;48.794;9.820;2023-01-24T21:45:53;97885.63;;;15.46;48.05
40596;BME280;26304;48.794;9.820;2023-01-24T21:51:38;97887.94;;;15.47;47.92
40596;BME280;26304;48.794;9.820;2023-01-24T21:57:20;97886.44;;;15.46;48.61
40596;BME280;26304;48.794;9.820;2023-01-24T22:03:20;97883.00;;;15.46;48.21
40596;BME280;26304;48.794;9.820;2023-01-24T22:09:10;97879.19;;;15.43;48.47
40596;BME280;26304;48.794;9.820;2023-01-24T22:14:53;97887.06;;;15.43;48.67
40596;BME280;26304;48.794;9.820;2023-01-24T22:20:39;97885.63;;;15.46;48.54
40596;BME280;26304;48.794;9.820;2023-01-24T22:26:26;97892.59;;;15.41;49.41
40596;BME280;26304;48.794;9.820;2023-01-24T22:32:15;97890.28;;;15.40;49.14
40596;BME280;26304;48.794;9.820;2023-01-24T22:37:59;97893.53;;;15.37;49.07
40596;BME280;26304;48.794;9.820;2023-01-24T22:43:44;97884.16;;;15.27;49.53
40596;BME280;26304;48.794;9.820;2023-01-24T22:49:26;97879.97;;;15.26;49.81
40596;BME280;26304;48.794;9.820;2023-01-24T22:55:09;97875.66;;;15.21;49.91
40596;BME280;26304;48.794;9.820;2023-01-24T23:00:52;97877.22;;;15.22;50.44
40596;BME280;26304;48.794;9.820;2023-01-24T23:06:35;97857.94;;;15.18;49.97
40596;BME280;26304;48.794;9.820;2023-01-24T23:12:17;97853.81;;;15.17;50.01
40596;BME280;26304;48.794;9.820;2023-01-24T23:18:19;97850.84;;;15.19;50.55
40596;BME280;26304;48.794;9.820;2023-01-24T23:24:25;97850.88;;;15.10;50.79
40596;BME280;26304;48.794;9.820;2023-01-24T23:30:26;97835.16;;;15.10;50.73
40596;BME280;26304;48.794;9.820;2023-01-24T23:36:13;97831.59;;;15.06;50.79
40596;BME280;26304;48.794;9.820;2023-01-24T23:41:55;97827.91;;;15.07;50.45
40596;BME280;26304;48.794;9.820;2023-01-24T23:47:38;97823.44;;;15.07;50.86
40596;BME280;26304;48.794;9.820;2023-01-24T23:53:22;97809.13;;;15.05;51.11
40596;BME280;26304;48.794;9.820;2023-01-24T23:59:04;97802.34;;;15.04;51.06
